createdAt,value
2023-02-06T00:02:13.521Z,2.65
2023-02-06T00:04:40.003Z,3.13
2023-02-06T00:07:06.458Z,2.97
2023-02-06T00:09:32.900Z,2.45
2023-02-06T00:11:59.272Z,3.42
2023-02-06T00:14:25.710Z,2.50
2023-02-06T00:16:52.090Z,2.70
2023-02-06T00:19:18.487Z,3.05
2023-02-06T00:21:44.933Z,2.28
2023-02-06T00:24:11.328Z,4.10
2023-02-06T00:26:37.701Z,2.90
2023-02-06T00:29:04.074Z,2.67
2023-02-06T00:31:30.613Z,3.03
2023-02-06T00:33:57.080Z,2.90
2023-02-06T00:36:23.474Z,2.38
2023-02-06T00:38:49.924Z,2.38
2023-02-06T00:41:16.325Z,2.92
2023-02-06T00:43:42.702Z,3.40
2023-02-06T00:46:09.142Z,3.35
2023-02-06T00:48:35.603Z,3.25
2023-02-06T00:51:02.065Z,2.88
2023-02-06T00:53:28.499Z,3.40
2023-02-06T00:55:54.945Z,2.72
2023-02-06T00:58:21.386Z,3.28
2023-02-06T01:00:47.985Z,3.03
2023-02-06T01:03:14.426Z,3.78
2023-02-06T01:05:40.827Z,3.10
2023-02-06T01:08:07.251Z,3.33
2023-02-06T01:10:33.804Z,3.83
2023-02-06T01:13:00.236Z,2.92
2023-02-06T01:15:26.636Z,3.38
2023-02-06T01:17:53.039Z,3.85
2023-02-06T01:20:19.490Z,3.72
2023-02-06T01:22:45.920Z,4.15
2023-02-06T01:25:12.305Z,3.33
2023-02-06T01:27:38.765Z,3.20
2023-02-06T01:30:05.235Z,3.10
2023-02-06T01:32:31.689Z,3.22
2023-02-06T01:34:58.126Z,3.33
2023-02-06T01:37:24.557Z,3.05
2023-02-06T01:39:50.956Z,4.20
2023-02-06T01:42:17.392Z,3.13
2023-02-06T01:44:43.790Z,2.75
2023-02-06T01:47:10.178Z,3.40
2023-02-06T01:49:36.564Z,2.53
2023-02-06T01:52:03.005Z,2.92
2023-02-06T01:54:29.430Z,2.00
2023-02-06T01:56:55.857Z,2.80
2023-02-06T01:59:22.312Z,3.17
2023-02-06T02:01:48.758Z,3.63
2023-02-06T02:04:15.194Z,4.53
2023-02-06T02:06:41.602Z,4.43
2023-02-06T02:09:08.024Z,3.42
2023-02-06T02:11:34.461Z,3.92
2023-02-06T02:14:00.901Z,3.53
2023-02-06T02:16:27.336Z,2.78
2023-02-06T02:18:53.741Z,3.50
2023-02-06T02:21:20.153Z,2.85
2023-02-06T02:23:46.970Z,2.58
2023-02-06T02:26:13.411Z,2.50
2023-02-06T02:28:39.803Z,1.83
2023-02-06T02:31:06.236Z,2.10
2023-02-06T02:33:32.679Z,2.55
2023-02-06T02:35:59.060Z,2.42
2023-02-06T02:38:25.570Z,1.95
2023-02-06T02:40:52.017Z,2.75
2023-02-06T02:43:18.462Z,2.58
2023-02-06T02:45:44.918Z,2.70
2023-02-06T02:48:11.329Z,2.30
2023-02-06T02:50:37.721Z,2.28
2023-02-06T02:53:04.134Z,2.35
2023-02-06T02:55:30.566Z,2.72
2023-02-06T02:57:56.953Z,2.97
2023-02-06T03:00:23.497Z,3.28
2023-02-06T03:02:50.042Z,3.03
2023-02-06T03:05:16.446Z,2.92
2023-02-06T03:07:42.890Z,2.40
2023-02-06T03:10:09.275Z,3.10
2023-02-06T03:12:35.710Z,3.42
2023-02-06T03:15:02.140Z,4.00
2023-02-06T03:17:28.528Z,2.40
2023-02-06T03:19:54.913Z,2.15
2023-02-06T03:22:21.374Z,2.45
2023-02-06T03:24:47.960Z,2.20
2023-02-06T03:27:14.342Z,2.53
2023-02-06T03:29:40.725Z,2.00
2023-02-06T03:32:07.114Z,1.70
2023-02-06T03:34:33.748Z,2.08
2023-02-06T03:37:00.126Z,1.85
2023-02-06T03:39:26.582Z,1.60
2023-02-06T03:41:52.952Z,2.90
2023-02-06T03:44:19.403Z,1.65
2023-02-06T03:46:45.845Z,2.83
2023-02-06T03:49:12.249Z,2.55
2023-02-06T03:51:38.637Z,3.22
2023-02-06T03:54:05.149Z,2.30
2023-02-06T03:56:31.595Z,2.78
2023-02-06T03:58:58.035Z,2.35
2023-02-06T04:01:24.480Z,2.10
2023-02-06T04:03:50.972Z,2.70
2023-02-06T04:06:17.435Z,2.38
2023-02-06T04:08:43.883Z,1.85
2023-02-06T04:11:10.272Z,1.95
2023-02-06T04:13:36.655Z,2.17
2023-02-06T04:16:03.025Z,1.70
2023-02-06T04:18:29.440Z,1.70
2023-02-06T04:20:55.819Z,1.52
2023-02-06T04:23:22.263Z,1.30
2023-02-06T04:25:48.737Z,1.70
2023-02-06T04:28:15.192Z,1.85
2023-02-06T04:30:41.744Z,2.13
2023-02-06T04:33:08.208Z,2.15
2023-02-06T04:35:35.111Z,1.50
2023-02-06T04:38:01.590Z,1.42
2023-02-06T04:40:28.031Z,2.00
2023-02-06T04:42:54.484Z,1.77
2023-02-06T04:45:20.879Z,1.60
2023-02-06T04:47:47.297Z,1.80
2023-02-06T04:50:13.684Z,2.47
2023-02-06T04:52:40.112Z,3.20
2023-02-06T04:55:06.586Z,3.03
2023-02-06T04:57:32.980Z,2.28
2023-02-06T04:59:59.362Z,2.13
2023-02-06T05:02:25.827Z,1.60
2023-02-06T05:04:52.249Z,1.73
2023-02-06T05:07:18.660Z,1.48
2023-02-06T05:09:45.041Z,1.48
2023-02-06T05:12:13.969Z,1.95
2023-02-06T05:14:40.709Z,1.77
2023-02-06T05:17:07.137Z,2.72
2023-02-06T05:19:33.784Z,3.20
2023-02-06T05:22:00.253Z,2.30
2023-02-06T05:24:26.702Z,3.10
2023-02-06T05:26:53.134Z,2.00
2023-02-06T05:29:19.515Z,2.15
2023-02-06T05:31:46.018Z,1.40
2023-02-06T05:34:12.496Z,1.50
2023-02-06T05:36:38.932Z,1.38
2023-02-06T05:39:05.344Z,1.65
2023-02-06T05:41:31.734Z,2.13
2023-02-06T05:43:58.173Z,1.30
2023-02-06T05:46:24.664Z,1.65
2023-02-06T05:48:51.224Z,1.63
2023-02-06T05:51:18.046Z,1.95
2023-02-06T05:53:44.473Z,1.70
2023-02-06T05:56:10.858Z,1.83
2023-02-06T05:58:37.225Z,1.67
2023-02-06T06:01:03.914Z,1.60
2023-02-06T06:03:33.088Z,1.65
2023-02-06T06:05:59.960Z,2.10
2023-02-06T06:08:26.418Z,1.88
2023-02-06T06:10:52.856Z,1.50
2023-02-06T06:13:19.236Z,1.67
2023-02-06T06:15:45.706Z,1.60
2023-02-06T06:18:12.156Z,1.98
2023-02-06T06:20:38.603Z,2.00
2023-02-06T06:23:04.990Z,1.73
2023-02-06T06:25:31.426Z,1.60
2023-02-06T06:27:57.929Z,1.65
2023-02-06T06:30:24.346Z,2.03
2023-02-06T06:32:50.801Z,1.80
2023-02-06T06:35:17.256Z,1.80
2023-02-06T06:37:43.633Z,1.88
2023-02-06T06:40:10.096Z,1.92
2023-02-06T06:42:36.548Z,2.30
2023-02-06T06:45:02.989Z,2.20
2023-02-06T06:47:29.426Z,2.38
2023-02-06T06:49:55.867Z,2.50
2023-02-06T06:52:25.401Z,2.55
2023-02-06T06:54:52.651Z,2.88
2023-02-06T06:57:19.291Z,2.95
2023-02-06T06:59:45.754Z,2.90
2023-02-06T07:02:12.156Z,2.63
2023-02-06T07:04:38.530Z,2.38
2023-02-06T07:07:04.985Z,2.65
2023-02-06T07:09:31.410Z,2.90
2023-02-06T07:11:57.784Z,2.10
2023-02-06T07:14:24.174Z,2.00
2023-02-06T07:16:50.597Z,2.50
2023-02-06T07:19:17.068Z,1.40
2023-02-06T07:21:43.513Z,1.67
2023-02-06T07:24:09.959Z,2.33
2023-02-06T07:26:36.391Z,2.33
2023-02-06T07:29:02.819Z,2.47
2023-02-06T07:31:29.213Z,2.10
2023-02-06T07:33:55.623Z,2.67
2023-02-06T07:36:22.041Z,2.20
2023-02-06T07:38:48.421Z,1.90
2023-02-06T07:41:14.854Z,1.90
2023-02-06T07:43:41.322Z,2.03
2023-02-06T07:46:07.842Z,2.85
2023-02-06T07:48:34.259Z,2.50
2023-02-06T07:51:00.628Z,2.58
2023-02-06T07:53:27.009Z,2.22
2023-02-06T07:55:53.383Z,3.17
2023-02-06T07:58:19.781Z,2.75
2023-02-06T08:00:46.146Z,3.05
2023-02-06T08:03:12.560Z,2.55
2023-02-06T08:05:39.203Z,2.30
2023-02-06T08:08:05.976Z,2.28
2023-02-06T08:10:32.469Z,1.90
2023-02-06T08:12:59.047Z,1.80
2023-02-06T08:15:25.431Z,2.05
2023-02-06T08:17:51.877Z,1.90
2023-02-06T08:20:18.256Z,1.70
2023-02-06T08:22:44.628Z,2.03
2023-02-06T08:25:11.059Z,2.08
2023-02-06T08:27:37.511Z,3.13
2023-02-06T08:30:03.924Z,2.17
2023-02-06T08:32:30.303Z,1.90
2023-02-06T08:34:56.689Z,1.90
2023-02-06T08:37:23.056Z,1.60
2023-02-06T08:39:49.420Z,1.85
2023-02-06T08:42:15.850Z,1.98
2023-02-06T08:44:42.281Z,1.95
2023-02-06T08:47:10.460Z,2.50
2023-02-06T08:49:37.091Z,2.78
2023-02-06T08:52:03.456Z,2.65
2023-02-06T08:54:29.870Z,2.40
2023-02-06T08:56:56.257Z,2.47
2023-02-06T08:59:22.634Z,2.08
2023-02-06T09:01:49.089Z,1.70
2023-02-06T09:04:15.522Z,1.85
2023-02-06T09:06:41.947Z,2.33
2023-02-06T09:09:08.342Z,1.60
2023-02-06T09:11:34.774Z,1.73
2023-02-06T09:14:01.233Z,2.05
2023-02-06T09:16:27.663Z,1.83
2023-02-06T09:18:54.298Z,2.00
2023-02-06T09:21:20.775Z,1.98
2023-02-06T09:23:47.209Z,2.83
2023-02-06T09:26:13.806Z,2.10
2023-02-06T09:28:40.191Z,2.67
2023-02-06T09:31:06.815Z,2.10
2023-02-06T09:33:33.234Z,2.00
2023-02-06T09:35:59.640Z,1.40
2023-02-06T09:38:26.106Z,1.95
2023-02-06T09:40:52.526Z,2.17
2023-02-06T09:43:18.927Z,1.80
2023-02-06T09:45:45.354Z,2.90
2023-02-06T09:48:11.792Z,1.83
2023-02-06T09:50:38.224Z,2.22
2023-02-06T09:53:04.673Z,1.88
2023-02-06T09:55:31.040Z,2.00
2023-02-06T09:57:57.461Z,2.20
2023-02-06T10:00:23.898Z,1.85
2023-02-06T10:02:50.361Z,3.00
2023-02-06T10:05:16.802Z,1.95
2023-02-06T10:07:43.244Z,1.92
2023-02-06T10:10:09.757Z,2.30
2023-02-06T10:12:36.156Z,2.33
2023-02-06T10:15:02.595Z,2.78
2023-02-06T10:17:29.026Z,2.22
2023-02-06T10:19:55.411Z,2.58
2023-02-06T10:22:21.786Z,2.45
2023-02-06T10:24:48.229Z,2.50
2023-02-06T10:27:14.705Z,2.22
2023-02-06T10:29:41.211Z,2.30
2023-02-06T10:32:07.592Z,3.05
2023-02-06T10:34:34.025Z,2.47
2023-02-06T10:37:00.464Z,2.70
2023-02-06T10:39:26.900Z,2.88
2023-02-06T10:41:53.355Z,2.63
2023-02-06T10:44:19.722Z,3.15
2023-02-06T10:46:46.233Z,2.65
2023-02-06T10:49:12.750Z,2.28
2023-02-06T10:51:39.178Z,2.75
2023-02-06T10:54:05.618Z,2.67
2023-02-06T10:56:32.095Z,2.08
2023-02-06T10:58:58.549Z,2.45
2023-02-06T11:01:26.699Z,4.00
2023-02-06T11:03:53.441Z,2.95
2023-02-06T11:06:19.857Z,2.97
2023-02-06T11:08:46.312Z,2.38
2023-02-06T11:11:12.721Z,2.50
2023-02-06T11:13:39.094Z,3.30
2023-02-06T11:16:05.543Z,2.72
2023-02-06T11:18:31.917Z,2.55
2023-02-06T11:20:58.300Z,3.35
2023-02-06T11:23:24.784Z,2.58
2023-02-06T11:25:51.184Z,2.83
2023-02-06T11:28:17.896Z,2.65
2023-02-06T11:30:44.371Z,2.65
2023-02-06T11:33:10.808Z,3.15
2023-02-06T11:35:37.610Z,2.47
2023-02-06T11:38:05.484Z,3.20
2023-02-06T11:40:31.986Z,2.70
2023-02-06T11:42:58.363Z,2.45
2023-02-06T11:45:24.839Z,3.03
2023-02-06T11:47:51.341Z,2.15
2023-02-06T11:50:18.038Z,2.17
2023-02-06T11:52:46.649Z,2.00
2023-02-06T11:55:13.311Z,2.55
2023-02-06T11:57:39.743Z,2.10
2023-02-06T12:00:06.154Z,2.70
2023-02-06T12:02:32.629Z,2.45
2023-02-06T12:04:59.097Z,1.88
2023-02-06T12:07:25.541Z,2.13
2023-02-06T12:09:51.921Z,1.92
2023-02-06T12:12:18.369Z,1.90
2023-02-06T12:14:44.803Z,2.47
2023-02-06T12:17:11.314Z,1.75
2023-02-06T12:19:37.705Z,1.85
2023-02-06T12:22:04.124Z,1.73
2023-02-06T12:24:30.602Z,1.88
2023-02-06T12:26:56.974Z,1.67
2023-02-06T12:29:23.373Z,2.40
2023-02-06T12:31:49.851Z,1.90
2023-02-06T12:34:16.279Z,1.73
2023-02-06T12:36:42.723Z,1.98
2023-02-06T12:39:09.104Z,1.83
2023-02-06T12:41:35.498Z,1.98
2023-02-06T12:44:01.916Z,1.92
2023-02-06T12:46:28.399Z,2.42
2023-02-06T12:48:54.835Z,2.63
2023-02-06T12:51:21.260Z,2.50
2023-02-06T12:53:47.690Z,2.10
2023-02-06T12:56:14.068Z,2.33
2023-02-06T12:58:40.454Z,2.22
2023-02-06T13:01:12.071Z,2.45
2023-02-06T13:03:47.468Z,2.22
2023-02-06T13:06:13.846Z,1.80
2023-02-06T13:08:40.278Z,2.10
2023-02-06T13:11:06.666Z,2.00
2023-02-06T13:13:33.072Z,1.58
2023-02-06T13:15:59.496Z,1.80
2023-02-06T13:18:25.925Z,1.73
2023-02-06T13:20:52.366Z,2.20
2023-02-06T13:23:18.753Z,1.70
2023-02-06T13:25:45.177Z,1.60
2023-02-06T13:28:11.624Z,2.58
2023-02-06T13:30:38.061Z,2.17
2023-02-06T13:33:04.537Z,1.95
2023-02-06T13:35:31.010Z,1.88
2023-02-06T13:37:57.421Z,2.47
2023-02-06T13:40:23.859Z,1.42
2023-02-06T13:42:50.336Z,1.30
2023-02-06T13:45:16.736Z,1.67
2023-02-06T13:47:43.159Z,1.35
2023-02-06T13:50:09.525Z,1.40
2023-02-06T13:52:35.960Z,1.30
2023-02-06T13:55:02.404Z,1.65
2023-02-06T13:57:28.859Z,2.08
2023-02-06T13:59:55.326Z,1.60
2023-02-06T14:02:23.843Z,2.10
2023-02-06T14:04:50.267Z,2.13
2023-02-06T14:07:16.703Z,1.60
2023-02-06T14:09:43.987Z,1.60
2023-02-06T14:12:10.466Z,1.73
2023-02-06T14:14:36.843Z,1.85
2023-02-06T14:17:03.216Z,1.85
2023-02-06T14:19:29.655Z,2.08
2023-02-06T14:21:56.063Z,2.50
2023-02-06T14:24:22.495Z,1.70
2023-02-06T14:26:48.887Z,1.85
2023-02-06T14:29:15.242Z,1.63
2023-02-06T14:31:41.715Z,1.58
2023-02-06T14:34:08.178Z,1.58
2023-02-06T14:36:34.633Z,1.40
2023-02-06T14:39:03.342Z,1.00
2023-02-06T14:41:30.057Z,2.15
2023-02-06T14:43:56.447Z,1.42
2023-02-06T14:46:22.880Z,1.25
2023-02-06T14:48:49.288Z,1.70
2023-02-06T14:51:15.697Z,1.55
2023-02-06T14:53:42.084Z,2.38
2023-02-06T14:56:08.448Z,1.63
2023-02-06T14:58:34.877Z,1.60
2023-02-06T15:01:01.305Z,2.13
2023-02-06T15:03:27.737Z,1.92
2023-02-06T15:05:54.134Z,1.50
2023-02-06T15:08:20.530Z,1.90
2023-02-06T15:10:46.992Z,2.15
2023-02-06T15:13:13.440Z,1.67
2023-02-06T15:15:41.059Z,2.00
2023-02-06T15:18:08.724Z,2.25
2023-02-06T15:20:35.288Z,1.80
2023-02-06T15:23:16.303Z,1.63
2023-02-06T15:25:43.939Z,1.83
2023-02-06T15:28:10.355Z,2.05
2023-02-06T15:30:37.100Z,2.92
2023-02-06T15:33:03.830Z,2.05
2023-02-06T15:35:30.270Z,1.80
2023-02-06T15:37:56.675Z,1.73
2023-02-06T15:40:23.092Z,1.65
2023-02-06T15:42:49.528Z,2.15
2023-02-06T15:45:15.978Z,1.65
2023-02-06T15:47:42.391Z,2.22
2023-02-06T15:50:08.818Z,2.00
2023-02-06T15:52:35.259Z,1.40
2023-02-06T15:55:01.708Z,1.40
2023-02-06T15:57:28.316Z,1.50
2023-02-06T15:59:54.776Z,1.48
2023-02-06T16:02:21.238Z,1.42
2023-02-06T16:04:47.851Z,1.20
2023-02-06T16:07:14.224Z,1.60
2023-02-06T16:09:40.681Z,1.35
2023-02-06T16:12:07.072Z,1.88
2023-02-06T16:14:33.506Z,3.47
2023-02-06T16:16:59.939Z,1.65
2023-02-06T16:19:26.362Z,1.35
2023-02-06T16:21:52.760Z,1.40
2023-02-06T16:24:19.195Z,1.10
2023-02-06T16:26:45.646Z,1.25
2023-02-06T16:29:12.102Z,1.30
2023-02-06T16:31:38.643Z,1.20
2023-02-06T16:34:05.190Z,1.33
2023-02-06T16:36:31.645Z,1.92
2023-02-06T16:39:04.079Z,1.42
2023-02-06T16:41:31.002Z,1.60
2023-02-06T16:43:57.646Z,1.50
2023-02-06T16:46:24.165Z,1.92
2023-02-06T16:48:50.668Z,1.50
2023-02-06T16:51:17.101Z,1.30
2023-02-06T16:53:43.557Z,1.75
2023-02-06T16:56:09.947Z,1.55
2023-02-06T16:58:36.386Z,1.30
2023-02-06T17:01:03.114Z,1.40
2023-02-06T17:03:29.576Z,1.40
2023-02-06T17:05:56.017Z,1.45
2023-02-06T17:08:22.504Z,1.40
2023-02-06T17:10:48.967Z,1.65
2023-02-06T17:13:15.418Z,1.58
2023-02-06T17:15:41.838Z,1.80
2023-02-06T17:18:08.238Z,2.08
2023-02-06T17:20:34.652Z,2.35
2023-02-06T17:23:01.403Z,2.75
2023-02-06T17:25:27.791Z,2.88
2023-02-06T17:27:54.238Z,2.13
2023-02-06T17:30:20.755Z,3.15
2023-02-06T17:32:47.201Z,2.50
2023-02-06T17:35:13.618Z,3.17
2023-02-06T17:37:40.065Z,2.75
2023-02-06T17:40:06.495Z,2.33
2023-02-06T17:42:32.998Z,2.10
2023-02-06T17:44:59.426Z,1.88
2023-02-06T17:47:25.885Z,1.92
2023-02-06T17:49:54.087Z,2.05
2023-02-06T17:52:20.553Z,1.63
2023-02-06T17:54:47.020Z,1.98
2023-02-06T17:57:13.461Z,1.67
2023-02-06T17:59:39.936Z,1.63
2023-02-06T18:02:06.309Z,1.60
2023-02-06T18:04:32.725Z,1.77
2023-02-06T18:06:59.151Z,1.90
2023-02-06T18:09:25.540Z,2.22
2023-02-06T18:11:51.909Z,2.05
2023-02-06T18:14:18.487Z,2.00
2023-02-06T18:16:44.919Z,3.60
2023-02-06T18:19:11.347Z,2.85
2023-02-06T18:21:37.782Z,2.88
2023-02-06T18:24:04.178Z,3.00
2023-02-06T18:26:30.620Z,2.80
2023-02-06T18:28:57.075Z,2.30
2023-02-06T18:31:23.680Z,2.92
2023-02-06T18:33:50.061Z,2.58
2023-02-06T18:36:16.524Z,2.50
2023-02-06T18:38:42.942Z,3.08
2023-02-06T18:41:09.306Z,2.63
2023-02-06T18:43:35.716Z,2.90
2023-02-06T18:46:02.233Z,2.20
2023-02-06T18:48:28.654Z,1.95
2023-02-06T18:50:58.592Z,1.75
2023-02-06T18:53:25.106Z,2.10
2023-02-06T18:55:51.545Z,2.63
2023-02-06T18:58:17.975Z,2.20
2023-02-06T19:00:44.371Z,1.58
2023-02-06T19:03:10.836Z,2.03
2023-02-06T19:05:37.302Z,2.40
2023-02-06T19:08:03.700Z,2.60
2023-02-06T19:10:30.141Z,2.20
2023-02-06T19:12:56.589Z,3.85
2023-02-06T19:15:23.066Z,1.63
2023-02-06T19:17:49.473Z,1.92
2023-02-06T19:20:15.928Z,1.85
2023-02-06T19:22:42.374Z,1.83
2023-02-06T19:25:10.617Z,1.55
2023-02-06T19:27:37.827Z,1.60
2023-02-06T19:30:04.256Z,1.65
2023-02-06T19:32:30.646Z,2.10
2023-02-06T19:34:57.079Z,1.90
2023-02-06T19:37:23.548Z,1.58
2023-02-06T19:39:50.030Z,1.85
2023-02-06T19:42:16.559Z,2.13
2023-02-06T19:44:43.021Z,2.88
2023-02-06T19:47:09.410Z,1.85
2023-02-06T19:49:35.842Z,2.00
2023-02-06T19:52:02.452Z,2.05
2023-02-06T19:54:28.889Z,2.05
2023-02-06T19:56:55.358Z,2.33
2023-02-06T19:59:21.740Z,2.50
2023-02-06T20:01:48.165Z,2.30
2023-02-06T20:04:14.611Z,2.17
2023-02-06T20:06:41.003Z,2.63
2023-02-06T20:09:07.401Z,2.67
2023-02-06T20:11:33.857Z,2.83
2023-02-06T20:14:00.325Z,2.90
2023-02-06T20:16:27.030Z,2.95
2023-02-06T20:18:53.482Z,2.90
2023-02-06T20:21:19.882Z,2.53
2023-02-06T20:23:46.260Z,2.38
2023-02-06T20:26:12.670Z,2.40
2023-02-06T20:28:39.044Z,3.28
2023-02-06T20:31:05.486Z,2.80
2023-02-06T20:33:31.897Z,2.72
2023-02-06T20:35:59.346Z,3.25
2023-02-06T20:38:26.238Z,3.00
2023-02-06T20:40:52.931Z,2.58
2023-02-06T20:43:19.320Z,3.15
2023-02-06T20:45:45.784Z,3.38
2023-02-06T20:48:12.166Z,3.28
2023-02-06T20:50:38.953Z,3.65
2023-02-06T20:53:05.704Z,3.40
2023-02-06T20:55:32.135Z,3.38
2023-02-06T20:57:58.668Z,3.45
2023-02-06T21:00:25.712Z,3.40
2023-02-06T21:02:53.234Z,3.65
2023-02-06T21:05:19.737Z,3.58
2023-02-06T21:07:46.153Z,3.08
2023-02-06T21:10:12.562Z,3.08
2023-02-06T21:12:39.010Z,3.78
2023-02-06T21:15:05.467Z,3.33
2023-02-06T21:17:31.856Z,3.70
2023-02-06T21:19:58.230Z,3.75
2023-02-06T21:22:24.669Z,3.78
2023-02-06T21:24:51.076Z,3.83
2023-02-06T21:27:17.835Z,4.00
2023-02-06T21:29:44.278Z,4.30
2023-02-06T21:32:14.076Z,4.03
2023-02-06T21:34:40.840Z,3.55
2023-02-06T21:37:07.232Z,3.20
2023-02-06T21:39:33.608Z,3.80
2023-02-06T21:42:00.082Z,3.55
2023-02-06T21:44:26.514Z,4.05
2023-02-06T21:46:52.962Z,3.47
2023-02-06T21:49:19.373Z,3.97
2023-02-06T21:51:45.805Z,3.67
2023-02-06T21:54:12.239Z,3.55
2023-02-06T21:56:38.613Z,3.25
2023-02-06T21:59:05.052Z,3.03
2023-02-06T22:01:31.566Z,3.50
2023-02-06T22:03:58.013Z,3.90
2023-02-06T22:06:24.430Z,3.00
2023-02-06T22:08:50.860Z,3.00
2023-02-06T22:11:17.270Z,3.50
2023-02-06T22:13:43.656Z,3.20
2023-02-06T22:16:10.143Z,3.15
2023-02-06T22:18:36.622Z,4.07
2023-02-06T22:21:03.075Z,4.00
2023-02-06T22:23:29.533Z,4.03
2023-02-06T22:25:55.970Z,3.03
2023-02-06T22:28:22.433Z,3.03
2023-02-06T22:30:48.874Z,2.85
2023-02-06T22:33:15.319Z,3.70
2023-02-06T22:35:41.770Z,2.80
2023-02-06T22:38:08.158Z,3.58
2023-02-06T22:40:34.592Z,4.50
2023-02-06T22:43:01.182Z,4.82
2023-02-06T22:45:27.839Z,3.80
2023-02-06T22:47:54.222Z,4.32
2023-02-06T22:50:20.603Z,5.10
2023-02-06T22:52:46.986Z,6.25
2023-02-06T22:55:13.431Z,5.63
2023-02-06T22:57:39.865Z,6.03
2023-02-06T23:00:06.253Z,5.70
2023-02-06T23:02:32.694Z,5.35
2023-02-06T23:04:59.147Z,4.88
2023-02-06T23:07:25.534Z,4.93
2023-02-06T23:09:51.972Z,5.97
2023-02-06T23:12:18.600Z,4.75
2023-02-06T23:14:45.002Z,4.05
2023-02-06T23:17:11.453Z,4.53
2023-02-06T23:19:37.842Z,4.57
2023-02-06T23:22:04.286Z,4.20
2023-02-06T23:24:30.751Z,4.22
2023-02-06T23:26:57.232Z,4.13
2023-02-06T23:29:23.675Z,4.30
2023-02-06T23:31:50.219Z,5.43
2023-02-06T23:34:16.805Z,5.75
2023-02-06T23:36:43.206Z,4.53
2023-02-06T23:39:09.588Z,5.25
2023-02-06T23:41:36.032Z,4.57
2023-02-06T23:44:02.408Z,4.72
2023-02-06T23:46:28.792Z,4.97
2023-02-06T23:48:55.176Z,5.40
2023-02-06T23:51:21.665Z,5.38
2023-02-06T23:53:48.127Z,5.10
2023-02-06T23:56:14.519Z,5.07
2023-02-06T23:58:40.955Z,5.07
